createdAt,value
2019-04-04T00:00:14.353Z,9.18
2019-04-04T00:01:12.795Z,9.21
2019-04-04T00:02:13.176Z,9.23
2019-04-04T00:03:12.779Z,9.18
2019-04-04T00:04:12.843Z,9.20
2019-04-04T00:05:12.781Z,9.23
2019-04-04T00:06:12.739Z,9.33
2019-04-04T00:07:12.725Z,9.33
2019-04-04T00:08:12.733Z,9.21
2019-04-04T00:09:12.704Z,9.33
2019-04-04T00:10:12.724Z,9.39
2019-04-04T00:11:12.677Z,9.39
2019-04-04T00:12:12.675Z,9.40
2019-04-04T00:13:12.652Z,9.40
2019-04-04T00:14:13.407Z,9.50
2019-04-04T00:15:14.924Z,9.48
2019-04-04T00:16:13.962Z,9.32
2019-04-04T00:17:12.614Z,9.40
2019-04-04T00:18:12.606Z,9.36
2019-04-04T00:19:12.595Z,9.38
2019-04-04T00:20:25.734Z,9.35
2019-04-04T00:21:12.605Z,9.36
2019-04-04T00:22:12.583Z,9.23
2019-04-04T00:23:12.653Z,9.21
2019-04-04T00:24:12.589Z,9.17
2019-04-04T00:25:12.638Z,9.15
2019-04-04T00:26:12.552Z,9.14
2019-04-04T00:27:13.665Z,9.05
2019-04-04T00:28:14.631Z,8.99
2019-04-04T00:29:12.517Z,9.05
2019-04-04T00:30:12.472Z,8.92
2019-04-04T00:31:12.487Z,8.92
2019-04-04T00:32:12.517Z,8.79
2019-04-04T00:33:12.524Z,8.84
2019-04-04T00:34:13.785Z,8.83
2019-04-04T00:35:12.499Z,8.74
2019-04-04T00:36:12.497Z,8.68
2019-04-04T00:37:12.454Z,8.61
2019-04-04T00:38:12.520Z,8.61
2019-04-04T00:39:12.414Z,8.52
2019-04-04T00:40:12.359Z,8.47
2019-04-04T00:41:13.027Z,8.47
2019-04-04T00:42:12.337Z,8.43
2019-04-04T00:43:12.314Z,8.40
2019-04-04T00:44:12.323Z,8.38
2019-04-04T00:45:12.307Z,8.37
2019-04-04T00:46:12.288Z,8.28
2019-04-04T00:47:12.273Z,8.23
2019-04-04T00:48:12.265Z,8.20
2019-04-04T00:49:12.268Z,8.23
2019-04-04T00:50:12.259Z,8.23
2019-04-04T00:51:12.233Z,8.07
2019-04-04T00:52:12.219Z,8.20
2019-04-04T00:53:12.370Z,8.16
2019-04-04T00:54:14.027Z,8.10
2019-04-04T00:55:13.880Z,8.12
2019-04-04T00:56:12.168Z,8.10
2019-04-04T00:57:12.159Z,7.98
2019-04-04T00:58:12.151Z,7.97
2019-04-04T00:59:12.134Z,7.95
2019-04-04T01:00:12.129Z,7.98
2019-04-04T01:01:12.161Z,7.92
2019-04-04T01:02:12.101Z,7.87
2019-04-04T01:03:12.099Z,7.83
2019-04-04T01:04:12.091Z,7.79
2019-04-04T01:05:12.071Z,7.64
2019-04-04T01:06:12.080Z,7.72
2019-04-04T01:07:12.068Z,7.63
2019-04-04T01:08:12.042Z,7.61
2019-04-04T01:09:13.362Z,7.55
2019-04-04T01:10:12.014Z,7.61
2019-04-04T01:11:12.006Z,7.48
2019-04-04T01:12:12.021Z,7.63
2019-04-04T01:13:12.008Z,7.52
2019-04-04T01:14:11.965Z,7.43
2019-04-04T01:15:11.978Z,7.34
2019-04-04T01:16:11.954Z,7.31
2019-04-04T01:17:11.961Z,7.25
2019-04-04T01:18:11.923Z,7.27
2019-04-04T01:19:11.934Z,7.16
2019-04-04T01:20:11.903Z,7.15
2019-04-04T01:21:11.892Z,7.13
2019-04-04T01:22:11.890Z,7.07
2019-04-04T01:23:11.869Z,7.09
2019-04-04T01:24:11.860Z,7.05
2019-04-04T01:25:11.901Z,7.07
2019-04-04T01:26:11.846Z,6.95
2019-04-04T01:27:11.842Z,6.97
2019-04-04T01:28:11.811Z,6.94
2019-04-04T01:29:11.790Z,7.02
2019-04-04T01:30:12.588Z,6.99
2019-04-04T01:31:14.640Z,6.99
2019-04-04T01:32:11.802Z,6.97
2019-04-04T01:33:11.755Z,6.94
2019-04-04T01:34:11.742Z,6.97
2019-04-04T01:35:11.733Z,6.94
2019-04-04T01:36:11.729Z,6.95
2019-04-04T01:37:11.721Z,7.12
2019-04-04T01:38:11.715Z,7.21
2019-04-04T01:39:11.692Z,7.39
2019-04-04T01:40:11.705Z,7.63
2019-04-04T01:41:11.743Z,7.72
2019-04-04T01:42:11.688Z,7.82
2019-04-04T01:43:12.207Z,7.85
2019-04-04T01:44:11.827Z,7.89
2019-04-04T01:45:13.101Z,7.87
2019-04-04T01:46:13.033Z,7.97
2019-04-04T01:47:11.608Z,8.00
2019-04-04T01:48:11.605Z,7.89
2019-04-04T01:49:11.585Z,7.92
2019-04-04T01:50:11.591Z,7.89
2019-04-04T01:51:11.553Z,7.86
2019-04-04T01:52:11.557Z,7.87
2019-04-04T01:53:11.555Z,7.89
2019-04-04T01:54:11.532Z,7.92
2019-04-04T01:55:11.516Z,7.97
2019-04-04T01:56:11.544Z,8.01
2019-04-04T01:57:11.482Z,7.97
2019-04-04T01:58:11.734Z,7.97
2019-04-04T01:59:12.290Z,7.93
2019-04-04T02:00:14.741Z,8.00
2019-04-04T02:01:11.465Z,8.04
2019-04-04T02:02:11.435Z,8.01
2019-04-04T02:03:11.483Z,7.93
2019-04-04T02:04:11.409Z,8.00
2019-04-04T02:05:11.400Z,7.92
2019-04-04T02:06:11.393Z,7.97
2019-04-04T02:07:11.380Z,7.89
2019-04-04T02:08:11.366Z,7.85
2019-04-04T02:09:11.726Z,7.69
2019-04-04T02:10:11.387Z,7.60
2019-04-04T02:11:11.338Z,7.57
2019-04-04T02:12:11.330Z,7.48
2019-04-04T02:13:11.316Z,7.45
2019-04-04T02:14:11.913Z,7.32
2019-04-04T02:15:13.944Z,7.28
2019-04-04T02:16:11.342Z,7.17
2019-04-04T02:17:11.267Z,7.05
2019-04-04T02:18:11.256Z,7.02
2019-04-04T02:19:11.245Z,6.99
2019-04-04T02:20:11.243Z,6.80
2019-04-04T02:21:11.219Z,6.85
2019-04-04T02:22:11.245Z,6.70
2019-04-04T02:23:11.216Z,6.64
2019-04-04T02:24:11.193Z,6.66
2019-04-04T02:25:11.189Z,6.55
2019-04-04T02:26:11.156Z,6.48
2019-04-04T02:27:11.167Z,6.52
2019-04-04T02:28:11.144Z,6.40
2019-04-04T02:29:11.672Z,6.37
2019-04-04T02:30:14.631Z,6.30
2019-04-04T02:31:11.122Z,6.22
2019-04-04T02:32:11.101Z,6.22
2019-04-04T02:33:11.085Z,6.06
2019-04-04T02:34:11.117Z,6.01
2019-04-04T02:35:11.745Z,6.00
2019-04-04T02:36:11.051Z,5.89
2019-04-04T02:37:11.038Z,5.94
2019-04-04T02:38:11.054Z,5.93
2019-04-04T02:39:11.059Z,5.94
2019-04-04T02:40:11.021Z,5.78
2019-04-04T02:41:15.002Z,5.75
2019-04-04T02:42:10.985Z,5.64
2019-04-04T02:43:10.969Z,5.64
2019-04-04T02:44:19.665Z,5.54
2019-04-04T02:45:11.069Z,5.49
2019-04-04T02:46:11.473Z,5.46
2019-04-04T02:47:10.979Z,5.43
2019-04-04T02:48:10.932Z,5.39
2019-04-04T02:49:30.781Z,5.39
2019-04-04T02:50:10.893Z,5.39
2019-04-04T02:51:10.938Z,5.12
2019-04-04T02:52:13.272Z,5.18
2019-04-04T02:53:10.860Z,5.12
2019-04-04T02:54:10.911Z,5.10
2019-04-04T02:55:10.848Z,5.17
2019-04-04T02:56:10.855Z,5.15
2019-04-04T02:57:10.812Z,5.15
2019-04-04T02:58:14.000Z,5.07
2019-04-04T02:59:10.805Z,5.04
2019-04-04T03:00:11.771Z,5.04
2019-04-04T03:01:10.783Z,5.02
2019-04-04T03:02:10.765Z,5.07
2019-04-04T03:03:10.740Z,5.03
2019-04-04T03:04:13.513Z,4.97
2019-04-04T03:05:10.732Z,5.04
2019-04-04T03:06:10.787Z,5.00
2019-04-04T03:07:10.707Z,5.06
2019-04-04T03:08:11.249Z,5.00
2019-04-04T03:09:10.782Z,5.00
2019-04-04T03:10:15.240Z,4.97
2019-04-04T03:11:11.718Z,4.91
2019-04-04T03:12:10.651Z,4.94
2019-04-04T03:13:10.715Z,4.99
2019-04-04T03:14:10.624Z,5.06
2019-04-04T03:15:10.636Z,5.04
2019-04-04T03:16:10.603Z,5.03
2019-04-04T03:17:23.722Z,5.00
2019-04-04T03:18:10.641Z,4.99
2019-04-04T03:19:11.298Z,4.91
2019-04-04T03:20:10.699Z,4.94
2019-04-04T03:21:10.583Z,4.89
2019-04-04T03:22:10.528Z,4.88
2019-04-04T03:23:10.807Z,4.96
2019-04-04T03:24:10.514Z,4.91
2019-04-04T03:25:14.215Z,4.91
2019-04-04T03:26:10.517Z,4.82
2019-04-04T03:27:10.483Z,4.89
2019-04-04T03:28:10.503Z,4.94
2019-04-04T03:29:10.937Z,4.84
2019-04-04T03:30:14.571Z,4.91
2019-04-04T03:31:11.429Z,4.82
2019-04-04T03:32:14.482Z,4.73
2019-04-04T03:33:10.454Z,4.80
2019-04-04T03:34:12.498Z,4.69
2019-04-04T03:35:10.404Z,4.69
2019-04-04T03:36:10.391Z,4.69
2019-04-04T03:37:12.335Z,4.77
2019-04-04T03:38:10.694Z,4.82
2019-04-04T03:39:10.376Z,4.85
2019-04-04T03:40:10.354Z,4.75
2019-04-04T03:41:10.348Z,4.65
2019-04-04T03:42:10.307Z,4.60
2019-04-04T03:43:10.300Z,4.51
2019-04-04T03:44:10.294Z,4.58
2019-04-04T03:45:10.285Z,4.48
2019-04-04T03:46:10.785Z,4.45
2019-04-04T03:47:11.271Z,4.42
2019-04-04T03:48:10.234Z,4.40
2019-04-04T03:49:10.227Z,4.47
2019-04-04T03:50:10.224Z,4.44
2019-04-04T03:51:10.211Z,4.47
2019-04-04T03:52:11.392Z,4.52
2019-04-04T03:53:10.203Z,4.48
2019-04-04T03:54:10.172Z,4.36
2019-04-04T03:55:10.177Z,4.41
2019-04-04T03:56:10.153Z,4.41
2019-04-04T03:57:12.208Z,4.45
2019-04-04T03:58:10.128Z,4.36
2019-04-04T03:59:10.154Z,4.37
2019-04-04T04:00:10.121Z,4.33
2019-04-04T04:01:13.127Z,4.27
2019-04-04T04:02:10.085Z,4.32
2019-04-04T04:03:10.079Z,4.22
2019-04-04T04:04:10.067Z,4.16
2019-04-04T04:05:10.124Z,4.06
2019-04-04T04:06:10.139Z,4.12
2019-04-04T04:07:13.806Z,4.15
2019-04-04T04:08:11.787Z,4.12
2019-04-04T04:09:10.007Z,4.11
2019-04-04T04:10:10.001Z,4.11
2019-04-04T04:11:10.028Z,4.06
2019-04-04T04:12:11.139Z,4.05
2019-04-04T04:13:09.958Z,4.02
2019-04-04T04:14:09.961Z,3.96
2019-04-04T04:15:09.941Z,3.97
2019-04-04T04:16:10.022Z,3.83
2019-04-04T04:17:11.845Z,3.87
2019-04-04T04:18:09.921Z,3.87
2019-04-04T04:19:09.891Z,3.76
2019-04-04T04:20:09.899Z,3.79
2019-04-04T04:21:11.027Z,3.87
2019-04-04T04:22:12.860Z,3.78
2019-04-04T04:23:09.861Z,3.73
2019-04-04T04:24:09.839Z,3.78
2019-04-04T04:25:09.846Z,3.76
2019-04-04T04:26:10.154Z,3.75
2019-04-04T04:27:14.463Z,3.75
2019-04-04T04:28:10.805Z,3.65
2019-04-04T04:29:09.786Z,3.70
2019-04-04T04:30:09.767Z,3.73
2019-04-04T04:31:14.229Z,3.60
2019-04-04T04:32:09.790Z,3.75
2019-04-04T04:33:09.766Z,3.60
2019-04-04T04:34:09.715Z,3.68
2019-04-04T04:35:09.720Z,3.72
2019-04-04T04:36:10.376Z,3.66
2019-04-04T04:37:10.694Z,3.69
2019-04-04T04:38:09.682Z,3.57
2019-04-04T04:39:09.678Z,3.58
2019-04-04T04:40:13.792Z,3.61
2019-04-04T04:41:10.653Z,3.51
2019-04-04T04:42:09.634Z,3.57
2019-04-04T04:43:09.620Z,3.50
2019-04-04T04:44:09.632Z,3.48
2019-04-04T04:45:12.094Z,3.43
2019-04-04T04:46:09.599Z,3.51
2019-04-04T04:47:09.588Z,3.48
2019-04-04T04:48:09.593Z,3.47
2019-04-04T04:49:09.566Z,3.51
2019-04-04T04:50:10.016Z,3.45
2019-04-04T04:51:12.089Z,3.48
2019-04-04T04:52:09.525Z,3.51
2019-04-04T04:53:09.514Z,3.50
2019-04-04T04:54:09.495Z,3.47
2019-04-04T04:55:11.998Z,3.43
2019-04-04T04:56:09.491Z,3.47
2019-04-04T04:57:14.295Z,3.52
2019-04-04T04:58:11.225Z,3.51
2019-04-04T04:59:12.848Z,3.33
2019-04-04T05:00:09.462Z,3.32
2019-04-04T05:01:09.437Z,3.39
2019-04-04T05:02:09.414Z,3.39
2019-04-04T05:03:09.398Z,3.39
2019-04-04T05:04:09.391Z,3.42
2019-04-04T05:05:09.379Z,3.39
2019-04-04T05:06:09.497Z,3.45
2019-04-04T05:07:09.350Z,3.42
2019-04-04T05:08:10.202Z,3.42
2019-04-04T05:09:09.330Z,3.42
2019-04-04T05:10:09.327Z,3.47
2019-04-04T05:11:09.321Z,3.47
2019-04-04T05:12:09.306Z,3.43
2019-04-04T05:13:09.323Z,3.48
2019-04-04T05:14:09.276Z,3.47
2019-04-04T05:15:09.301Z,3.48
2019-04-04T05:16:09.273Z,3.43
2019-04-04T05:17:10.110Z,3.45
2019-04-04T05:18:11.795Z,3.47
2019-04-04T05:19:09.212Z,3.62
2019-04-04T05:20:09.206Z,3.60
2019-04-04T05:21:09.191Z,3.57
2019-04-04T05:22:09.820Z,3.65
2019-04-04T05:23:11.076Z,3.60
2019-04-04T05:24:09.154Z,3.62
2019-04-04T05:25:09.227Z,3.68
2019-04-04T05:26:09.743Z,3.66
2019-04-04T05:27:09.158Z,3.60
2019-04-04T05:28:10.719Z,3.61
2019-04-04T05:29:24.334Z,3.73
2019-04-04T05:30:20.463Z,3.75
2019-04-04T05:31:19.840Z,3.70
2019-04-04T05:32:09.197Z,3.88
2019-04-04T05:33:09.244Z,4.06
2019-04-04T05:34:09.990Z,4.14
2019-04-04T05:35:18.900Z,4.48
2019-04-04T05:37:21.319Z,5.07
2019-04-04T05:38:21.199Z,5.33
2019-04-04T05:39:21.229Z,5.51
2019-04-04T05:40:23.270Z,5.71
2019-04-04T05:41:21.257Z,5.91
2019-04-04T05:42:21.083Z,6.04
2019-04-04T05:43:21.067Z,6.15
2019-04-04T05:44:21.093Z,6.12
2019-04-04T05:45:21.048Z,6.21
2019-04-04T05:46:21.014Z,6.34
2019-04-04T05:47:22.914Z,6.46
2019-04-04T05:48:21.017Z,6.44
2019-04-04T05:49:20.991Z,6.59
2019-04-04T05:50:20.969Z,6.64
2019-04-04T05:51:20.963Z,6.71
2019-04-04T05:52:20.998Z,6.85
2019-04-04T05:53:21.575Z,6.97
2019-04-04T05:54:20.938Z,7.03
2019-04-04T05:55:20.935Z,7.07
2019-04-04T05:56:24.047Z,7.15
2019-04-04T05:57:20.892Z,7.09
2019-04-04T05:58:22.489Z,7.13
2019-04-04T05:59:23.661Z,7.13
2019-04-04T06:00:20.886Z,7.13
2019-04-04T06:01:20.844Z,7.13
2019-04-04T06:02:20.831Z,7.10
2019-04-04T06:03:20.825Z,7.24
2019-04-04T06:04:20.807Z,7.16
2019-04-04T06:05:20.827Z,7.21
2019-04-04T06:06:20.824Z,7.15
2019-04-04T06:07:20.792Z,7.17
2019-04-04T06:08:20.781Z,7.17
2019-04-04T06:09:20.756Z,7.17
2019-04-04T06:10:20.737Z,7.24
2019-04-04T06:11:21.756Z,7.25
2019-04-04T06:12:20.717Z,7.31
2019-04-04T06:13:22.213Z,7.31
2019-04-04T06:14:20.794Z,7.37
2019-04-04T06:15:20.683Z,7.35
2019-04-04T06:16:20.772Z,7.43
2019-04-04T06:17:20.669Z,7.57
2019-04-04T06:18:20.649Z,8.05
2019-04-04T06:19:20.662Z,8.83
2019-04-04T06:20:20.629Z,9.97
2019-04-04T06:21:20.610Z,10.84
2019-04-04T06:22:21.253Z,11.73
2019-04-04T06:23:20.688Z,12.42
2019-04-04T06:24:20.581Z,12.96
2019-04-04T06:25:20.586Z,13.71
2019-04-04T06:26:20.550Z,14.04
2019-04-04T06:27:20.574Z,13.91
2019-04-04T06:28:20.563Z,14.47
2019-04-04T06:29:20.527Z,15.02
2019-04-04T06:30:20.798Z,15.60
2019-04-04T06:31:20.505Z,16.08
2019-04-04T06:32:20.485Z,16.68
2019-04-04T06:33:20.486Z,16.41
2019-04-04T06:34:20.612Z,15.83
2019-04-04T06:35:20.455Z,15.25
2019-04-04T06:36:20.453Z,15.39
2019-04-04T06:37:20.718Z,15.36
2019-04-04T06:38:22.957Z,15.56
2019-04-04T06:39:20.434Z,15.27
2019-04-04T06:40:20.401Z,15.41
2019-04-04T06:41:20.431Z,15.28
2019-04-04T06:42:20.371Z,15.56
2019-04-04T06:43:20.368Z,15.44
2019-04-04T06:44:20.356Z,15.75
2019-04-04T06:45:20.352Z,15.78
2019-04-04T06:46:22.722Z,15.76
2019-04-04T06:47:20.320Z,15.67
2019-04-04T06:48:20.309Z,15.56
2019-04-04T06:49:20.337Z,15.50
2019-04-04T06:50:20.329Z,16.05
2019-04-04T06:51:20.274Z,16.45
2019-04-04T06:52:23.275Z,16.43
2019-04-04T06:53:22.213Z,16.07
2019-04-04T06:54:20.245Z,15.47
2019-04-04T06:55:20.282Z,14.91
2019-04-04T06:56:20.234Z,14.88
2019-04-04T06:57:20.221Z,14.62
2019-04-04T06:58:20.195Z,14.51
2019-04-04T06:59:20.200Z,14.80
2019-04-04T07:00:20.175Z,15.21
2019-04-04T07:01:21.863Z,15.64
2019-04-04T07:02:20.146Z,15.78
2019-04-04T07:03:20.184Z,15.41
2019-04-04T07:04:20.130Z,15.17
2019-04-04T07:05:20.123Z,14.80
2019-04-04T07:06:20.157Z,14.54
2019-04-04T07:07:20.128Z,14.17
2019-04-04T07:08:20.082Z,13.79
2019-04-04T07:09:20.078Z,13.71
2019-04-04T07:10:21.818Z,13.42
2019-04-04T07:11:21.555Z,13.26
2019-04-04T07:12:24.337Z,13.23
2019-04-04T07:13:26.490Z,13.55
2019-04-04T07:14:20.020Z,13.82
2019-04-04T07:15:20.005Z,14.22
2019-04-04T07:16:19.996Z,14.28
2019-04-04T07:17:19.995Z,14.09
2019-04-04T07:18:19.964Z,13.85
2019-04-04T07:19:19.959Z,12.87
2019-04-04T07:20:19.942Z,12.59
2019-04-04T07:21:20.628Z,12.72
2019-04-04T07:22:20.610Z,12.97
2019-04-04T07:23:19.904Z,13.36
2019-04-04T07:24:19.933Z,13.19
2019-04-04T07:25:19.886Z,13.23
2019-04-04T07:26:19.882Z,13.33
2019-04-04T07:27:19.895Z,13.42
2019-04-04T07:28:19.852Z,13.33
2019-04-04T07:29:19.845Z,13.32
2019-04-04T07:30:19.843Z,13.30
2019-04-04T07:31:19.826Z,13.10
2019-04-04T07:32:19.815Z,13.20
2019-04-04T07:33:21.392Z,12.97
2019-04-04T07:34:19.791Z,13.14
2019-04-04T07:35:21.189Z,12.93
2019-04-04T07:36:20.199Z,12.75
2019-04-04T07:37:21.917Z,12.86
2019-04-04T07:38:19.743Z,12.95
2019-04-04T07:39:19.751Z,13.15
2019-04-04T07:40:20.339Z,13.22
2019-04-04T07:41:19.708Z,13.00
2019-04-04T07:42:19.695Z,12.71
2019-04-04T07:43:20.094Z,12.86
2019-04-04T07:44:22.985Z,12.86
2019-04-04T07:45:19.659Z,12.95
2019-04-04T07:46:19.648Z,12.97
2019-04-04T07:47:19.636Z,12.96
2019-04-04T07:48:19.636Z,13.20
2019-04-04T07:49:21.096Z,13.28
2019-04-04T07:50:19.607Z,13.01
2019-04-04T07:51:19.623Z,12.83
2019-04-04T07:52:19.580Z,12.87
2019-04-04T07:53:19.582Z,12.95
2019-04-04T07:54:19.572Z,13.08
2019-04-04T07:55:19.545Z,12.97
2019-04-04T07:56:19.532Z,12.97
2019-04-04T07:57:20.214Z,13.08
2019-04-04T07:58:19.541Z,13.29
2019-04-04T07:59:19.516Z,13.45
2019-04-04T08:00:19.491Z,13.36
2019-04-04T08:01:19.482Z,13.39
2019-04-04T08:02:19.462Z,13.41
2019-04-04T08:03:19.457Z,13.51
2019-04-04T08:04:19.480Z,13.69
2019-04-04T08:05:19.427Z,13.64
2019-04-04T08:06:19.413Z,13.62
2019-04-04T08:07:19.402Z,13.63
2019-04-04T08:08:19.391Z,13.81
2019-04-04T08:09:19.393Z,13.89
2019-04-04T08:10:20.880Z,13.88
2019-04-04T08:11:19.362Z,13.79
2019-04-04T08:12:19.357Z,13.73
2019-04-04T08:13:19.355Z,13.84
2019-04-04T08:14:19.390Z,14.00
2019-04-04T08:15:19.328Z,14.42
2019-04-04T08:16:19.313Z,14.29
2019-04-04T08:17:19.294Z,14.25
2019-04-04T08:18:19.277Z,14.27
2019-04-04T08:19:19.302Z,14.09
2019-04-04T08:20:19.298Z,14.10
2019-04-04T08:21:19.245Z,14.10
2019-04-04T08:22:19.335Z,14.03
2019-04-04T08:23:19.242Z,14.07
2019-04-04T08:24:19.215Z,14.10
2019-04-04T08:25:19.252Z,14.35
2019-04-04T08:26:19.259Z,14.36
2019-04-04T08:27:19.201Z,14.22
2019-04-04T08:28:19.174Z,13.99
2019-04-04T08:29:19.160Z,13.55
2019-04-04T08:30:19.198Z,13.49
2019-04-04T08:31:19.173Z,13.64
2019-04-04T08:32:19.124Z,13.64
2019-04-04T08:33:19.117Z,13.81
2019-04-04T08:34:21.032Z,13.70
2019-04-04T08:35:19.138Z,13.77
2019-04-04T08:36:19.078Z,13.91
2019-04-04T08:37:19.083Z,13.82
2019-04-04T08:38:19.292Z,13.89
2019-04-04T08:39:19.042Z,14.00
2019-04-04T08:40:19.030Z,14.24
2019-04-04T08:41:19.035Z,14.29
2019-04-04T08:42:19.047Z,14.39
2019-04-04T08:43:19.019Z,14.43
2019-04-04T08:44:18.986Z,14.40
2019-04-04T08:45:18.980Z,13.95
2019-04-04T08:46:19.998Z,13.82
2019-04-04T08:47:18.976Z,13.66
2019-04-04T08:48:18.961Z,13.64
2019-04-04T08:49:18.926Z,13.77
2019-04-04T08:50:18.938Z,13.92
2019-04-04T08:51:18.929Z,13.97
2019-04-04T08:52:20.788Z,14.10
2019-04-04T08:53:18.882Z,14.22
2019-04-04T08:54:18.881Z,14.25
2019-04-04T08:55:18.884Z,14.24
2019-04-04T08:56:18.893Z,14.32
2019-04-04T08:57:19.606Z,14.42
2019-04-04T08:58:18.842Z,14.61
2019-04-04T08:59:19.535Z,14.68
2019-04-04T09:00:18.854Z,14.78
2019-04-04T09:01:18.839Z,14.86
2019-04-04T09:02:19.862Z,14.99
2019-04-04T09:03:19.522Z,15.10
2019-04-04T09:04:41.558Z,15.31
2019-04-04T09:05:19.524Z,15.36
2019-04-04T09:06:19.743Z,15.41
2019-04-04T09:07:18.827Z,15.28
2019-04-04T09:08:18.800Z,15.10
2019-04-04T09:09:18.841Z,15.14
2019-04-04T09:10:20.555Z,15.09
2019-04-04T09:11:19.740Z,15.14
2019-04-04T09:12:30.137Z,15.17
2019-04-04T09:13:18.978Z,15.27
2019-04-04T09:14:19.333Z,15.43
2019-04-04T09:15:19.150Z,15.43
2019-04-04T09:16:19.586Z,15.47
2019-04-04T09:17:19.665Z,15.54
2019-04-04T09:18:18.702Z,15.59
2019-04-04T09:19:19.583Z,15.50
2019-04-04T09:20:18.641Z,15.56
2019-04-04T09:21:18.623Z,15.59
2019-04-04T09:22:19.675Z,15.54
2019-04-04T09:23:20.588Z,15.41
2019-04-04T09:24:18.549Z,14.99
2019-04-04T09:25:31.689Z,14.37
2019-04-04T09:26:19.316Z,14.29
2019-04-04T09:27:19.535Z,14.36
2019-04-04T09:28:19.171Z,14.27
2019-04-04T09:29:19.120Z,14.22
2019-04-04T09:30:21.668Z,14.10
2019-04-04T09:31:29.379Z,14.24
2019-04-04T09:32:18.590Z,14.27
2019-04-04T09:33:20.927Z,14.40
2019-04-04T09:34:18.651Z,14.37
2019-04-04T09:35:18.482Z,14.37
2019-04-04T09:36:18.664Z,14.45
2019-04-04T09:37:19.553Z,14.43
2019-04-04T09:38:18.380Z,14.43
2019-04-04T09:39:18.433Z,14.43
2019-04-04T09:40:18.495Z,14.52
2019-04-04T09:41:18.354Z,14.03
2019-04-04T09:42:18.368Z,14.04
2019-04-04T09:43:18.318Z,14.02
2019-04-04T09:44:18.348Z,14.09
2019-04-04T09:45:18.288Z,14.22
2019-04-04T09:46:18.326Z,14.40
2019-04-04T09:47:18.274Z,14.61
2019-04-04T09:48:18.305Z,14.64
2019-04-04T09:49:19.122Z,14.70
2019-04-04T09:50:18.245Z,14.70
2019-04-04T09:51:18.320Z,14.75
2019-04-04T09:52:19.729Z,14.98
2019-04-04T09:53:19.295Z,15.07
2019-04-04T09:54:22.186Z,15.19
2019-04-04T09:55:19.407Z,15.28
2019-04-04T09:56:18.174Z,15.27
2019-04-04T09:57:19.103Z,15.27
2019-04-04T09:58:18.205Z,15.25
2019-04-04T09:59:18.160Z,15.21
2019-04-04T10:00:20.119Z,15.27
2019-04-04T10:01:18.134Z,15.28
2019-04-04T10:02:18.330Z,15.25
2019-04-04T10:03:18.141Z,15.13
2019-04-04T10:05:29.654Z,15.09
2019-04-04T10:06:29.607Z,15.16
2019-04-04T10:07:29.318Z,15.11
2019-04-04T10:08:29.304Z,15.10
2019-04-04T10:09:29.522Z,15.28
2019-04-04T10:10:30.233Z,15.34
2019-04-04T10:11:29.226Z,15.43
2019-04-04T10:12:29.645Z,15.49
2019-04-04T10:13:29.226Z,15.49
2019-04-04T10:14:29.482Z,15.47
2019-04-04T10:16:53.413Z,15.27
2019-04-04T10:17:52.649Z,15.38
2019-04-04T10:18:52.774Z,15.46
2019-04-04T10:22:42.702Z,15.72
2019-04-04T10:23:16.162Z,15.53
2019-04-04T10:24:15.817Z,15.47
2019-04-04T10:25:16.793Z,15.35
2019-04-04T10:26:26.792Z,15.36
2019-04-04T10:27:16.048Z,15.46
2019-04-04T10:28:15.900Z,15.62
2019-04-04T10:29:17.709Z,15.56
2019-04-04T10:30:15.654Z,15.62
2019-04-04T10:31:15.657Z,15.72
2019-04-04T10:32:15.673Z,16.00
2019-04-04T10:33:15.685Z,16.07
2019-04-04T10:34:15.680Z,16.14
2019-04-04T10:35:15.612Z,16.23
2019-04-04T10:36:15.624Z,16.33
2019-04-04T10:37:15.612Z,16.24
2019-04-04T10:38:15.590Z,16.23
2019-04-04T10:39:28.028Z,16.27
2019-04-04T10:40:16.640Z,16.30
2019-04-04T10:41:15.526Z,16.45
2019-04-04T10:42:15.517Z,16.52
2019-04-04T10:43:16.108Z,16.61
2019-04-04T10:44:15.486Z,16.67
2019-04-04T10:45:15.489Z,16.61
2019-04-04T10:46:15.506Z,16.58
2019-04-04T10:47:15.459Z,16.64
2019-04-04T10:48:15.434Z,16.70
2019-04-04T10:49:15.484Z,16.89
2019-04-04T10:50:15.470Z,16.82
2019-04-04T10:51:15.461Z,16.73
2019-04-04T10:52:15.393Z,16.58
2019-04-04T10:53:15.408Z,16.48
2019-04-04T10:54:15.391Z,16.27
2019-04-04T10:55:15.399Z,16.23
2019-04-04T10:56:15.347Z,16.25
2019-04-04T10:57:15.353Z,16.30
2019-04-04T10:58:15.324Z,16.01
2019-04-04T10:59:15.316Z,15.90
2019-04-04T11:00:15.310Z,16.00
2019-04-04T11:01:15.429Z,16.23
2019-04-04T11:02:15.342Z,16.41
2019-04-04T11:03:15.299Z,16.45
2019-04-04T11:04:16.269Z,16.58
2019-04-04T11:05:18.404Z,16.70
2019-04-04T11:06:15.241Z,16.56
2019-04-04T11:07:27.364Z,16.49
2019-04-04T11:08:15.315Z,16.70
2019-04-04T11:09:15.350Z,16.68
2019-04-04T11:10:15.575Z,16.31
2019-04-04T11:11:15.210Z,16.24
2019-04-04T11:12:15.163Z,16.17
2019-04-04T11:13:15.216Z,16.25
2019-04-04T11:14:15.142Z,16.17
2019-04-04T11:15:15.149Z,16.30
2019-04-04T11:16:15.118Z,16.24
2019-04-04T11:17:15.164Z,16.20
2019-04-04T11:18:15.158Z,16.07
2019-04-04T11:19:16.077Z,16.15
2019-04-04T11:20:15.098Z,16.07
2019-04-04T11:21:15.071Z,16.07
2019-04-04T11:22:15.081Z,15.89
2019-04-04T11:23:15.055Z,15.86
2019-04-04T11:24:15.060Z,16.04
2019-04-04T11:25:15.019Z,16.08
2019-04-04T11:26:15.037Z,16.24
2019-04-04T11:27:17.415Z,16.17
2019-04-04T11:28:14.994Z,16.25
2019-04-04T11:29:14.993Z,16.20
2019-04-04T11:30:14.980Z,16.23
2019-04-04T11:31:14.974Z,16.11
2019-04-04T11:32:14.935Z,16.25
2019-04-04T11:33:14.927Z,16.39
2019-04-04T11:34:14.924Z,16.56
2019-04-04T11:35:14.919Z,16.66
2019-04-04T11:36:14.895Z,16.73
2019-04-04T11:37:14.892Z,16.75
2019-04-04T11:38:14.876Z,16.79
2019-04-04T11:39:14.850Z,16.81
2019-04-04T11:40:14.872Z,16.88
2019-04-04T11:41:14.831Z,16.94
2019-04-04T11:42:14.824Z,17.07
2019-04-04T11:43:14.869Z,16.96
2019-04-04T11:44:14.827Z,17.11
2019-04-04T11:45:14.826Z,17.33
2019-04-04T11:46:14.781Z,17.40
2019-04-04T11:47:14.802Z,17.43
2019-04-04T11:48:14.758Z,17.41
2019-04-04T11:49:14.753Z,17.54
2019-04-04T11:50:14.755Z,17.55
2019-04-04T11:51:14.711Z,17.75
2019-04-04T11:52:14.726Z,17.48
2019-04-04T11:53:14.691Z,17.56
2019-04-04T11:54:15.680Z,17.44
2019-04-04T11:55:14.688Z,17.40
2019-04-04T11:56:14.658Z,17.12
2019-04-04T11:57:14.691Z,17.22
2019-04-04T11:58:14.636Z,17.14
2019-04-04T11:59:14.624Z,17.01
2019-04-04T12:00:14.619Z,16.91
2019-04-04T12:01:14.597Z,17.03
2019-04-04T12:02:14.586Z,16.98
2019-04-04T12:03:14.603Z,17.08
2019-04-04T12:04:14.565Z,17.21
2019-04-04T12:05:14.571Z,17.36
2019-04-04T12:06:14.544Z,17.41
2019-04-04T12:07:14.534Z,17.51
2019-04-04T12:08:14.529Z,17.49
2019-04-04T12:09:14.561Z,17.40
2019-04-04T12:10:14.504Z,17.46
2019-04-04T12:11:14.485Z,17.49
2019-04-04T12:12:14.491Z,17.75
2019-04-04T12:13:14.463Z,17.56
2019-04-04T12:14:14.453Z,17.49
2019-04-04T12:15:14.489Z,17.56
2019-04-04T12:16:14.438Z,17.54
2019-04-04T12:17:14.421Z,17.66
2019-04-04T12:18:14.409Z,17.72
2019-04-04T12:19:14.389Z,17.93
2019-04-04T12:20:14.418Z,18.11
2019-04-04T12:21:14.401Z,18.12
2019-04-04T12:22:14.363Z,17.86
2019-04-04T12:23:14.356Z,17.75
2019-04-04T12:24:14.337Z,17.78
2019-04-04T12:25:14.328Z,17.89
2019-04-04T12:26:14.330Z,18.02
2019-04-04T12:27:14.327Z,18.30
2019-04-04T12:28:14.298Z,18.54
2019-04-04T12:29:14.283Z,18.73
2019-04-04T12:30:14.275Z,18.67
2019-04-04T12:31:14.287Z,18.52
2019-04-04T12:32:14.242Z,18.47
2019-04-04T12:33:14.266Z,18.37
2019-04-04T12:34:14.224Z,18.29
2019-04-04T12:35:14.222Z,18.17
2019-04-04T12:36:24.035Z,18.21
2019-04-04T12:37:15.201Z,17.89
2019-04-04T12:38:14.180Z,17.71
2019-04-04T12:39:14.200Z,17.74
2019-04-04T12:40:20.398Z,17.75
2019-04-04T12:41:14.144Z,17.79
2019-04-04T12:42:14.144Z,17.87
2019-04-04T12:43:14.127Z,18.05
2019-04-04T12:44:14.115Z,18.03
2019-04-04T12:45:14.119Z,18.02
2019-04-04T12:46:14.092Z,18.29
2019-04-04T12:47:14.099Z,18.48
2019-04-04T12:48:14.070Z,18.35
2019-04-04T12:49:14.055Z,18.55
2019-04-04T12:50:14.041Z,18.29
2019-04-04T12:51:14.055Z,18.15
2019-04-04T12:52:14.017Z,18.18
2019-04-04T12:53:14.018Z,17.75
2019-04-04T12:54:14.007Z,17.74
2019-04-04T12:55:13.994Z,17.92
2019-04-04T12:56:13.972Z,18.05
2019-04-04T12:57:13.997Z,18.21
2019-04-04T12:58:14.019Z,18.45
2019-04-04T12:59:13.937Z,18.26
2019-04-04T13:00:13.932Z,17.99
2019-04-04T13:01:13.919Z,17.93
2019-04-04T13:02:14.557Z,18.29
2019-04-04T13:03:13.902Z,18.27
2019-04-04T13:04:13.920Z,18.51
2019-04-04T13:05:13.869Z,18.78
2019-04-04T13:06:13.854Z,18.78
2019-04-04T13:07:13.853Z,18.66
2019-04-04T13:08:13.842Z,18.85
2019-04-04T13:09:13.836Z,18.84
2019-04-04T13:10:13.834Z,18.82